Columbiaville, Michigan
Current Conditions -  °F | °C
As of 10:14 PM on Tuesday 21 Oct 2014 (Local Time) from KD95 Reporting Station
Overcast Overcast  
Wind Chill: 37°   Ceiling: 2100
Heat Index: 43°   Visibility: 10mi
Dew Point: 35°   Wind: 9mph
Humidity: 73%   Direction: 20°NNE
Pressure: 30.23"   Gusts: NA
Location:  43.16°N, 83.41°W
Report Text: KD95 220214Z AUTO 02008KT 10SM OVC021 06/02 A3023 RMK AO2 T00600015
Loading
Personal Weather Stations






























Interactive Weather Map New forecast layout! Learn more

10-Day Weather Forecast

Advertisements
Track Severe Weather on mobile